Time;durP1;ratioP1;P1;durP2;ratioP2;P2;SDS_P1;SDS_P2;PMS_P1;PMS_P2;Temp;Humidity;BMP_temperature;BMP_pressure;BME280_temperature;BME280_humidity;BME280_pressure;Samples;Min_cycle;Max_cycle;Signal;HPM_P1;HPM_P2
2022/08/20 00:05:01;;;;;;;20.33;15.57;;;;;;;23.30;51.76;100392.94;10518274;28;20269;-81
2022/08/20 00:10:24;;;;;;;20.77;16.13;;;;;;;23.47;52.15;100386.25;10528728;28;20229;-81
2022/08/20 00:15:46;;;;;;;18.83;14.77;;;;;;;22.37;54.71;100393.41;10527263;28;20613;-81
2022/08/20 00:21:11;;;;;;;25.35;18.08;;;;;;;22.54;56.23;100397.47;10531173;28;20187;-81
2022/08/20 00:26:33;;;;;;;29.08;18.98;;;;;;;21.85;59.25;100390.25;10546012;28;20224;-80
2022/08/20 00:31:56;;;;;;;33.33;20.50;;;;;;;22.11;59.35;100403.34;10541467;28;20279;-81
2022/08/20 00:37:18;;;;;;;14.68;11.35;;;;;;;21.45;59.83;100393.53;10510999;28;20194;-81
2022/08/20 00:42:46;;;;;;;19.65;11.55;;;;;;;21.22;60.58;100382.41;10509871;28;20595;-82
2022/08/20 00:48:08;;;;;;;18.40;11.65;;;;;;;21.34;60.82;100387.72;10513031;28;20214;-81
2022/08/20 00:53:31;;;;;;;15.38;9.75;;;;;;;21.26;60.79;100396.75;10514131;28;20232;-81
2022/08/20 00:58:54;;;;;;;11.40;8.07;;;;;;;21.25;59.71;100397.97;10530653;28;20216;-82
2022/08/20 01:04:16;;;;;;;9.70;5.88;;;;;;;21.12;59.42;100429.06;10504746;28;20280;-83
2022/08/20 01:09:38;;;;;;;6.88;2.70;;;;;;;19.71;62.88;100455.66;10508923;28;20708;-82
2022/08/20 01:15:02;;;;;;;15.77;3.90;;;;;;;19.36;66.33;100444.69;10542113;28;20623;-84
2022/08/20 01:20:37;;;;;;;5.57;2.15;;;;;;;21.18;60.57;100438.94;10509737;28;20188;-86
2022/08/20 01:26:08;;;;;;;4.00;2.30;;;;;;;20.83;61.01;100419.56;10499528;28;20207;-84
2022/08/20 01:31:33;;;;;;;3.92;2.20;;;;;;;20.76;61.10;100430.97;10500122;28;20300;-82
2022/08/20 01:36:56;;;;;;;6.18;2.30;;;;;;;20.37;62.09;100425.91;10510278;28;20222;-82
2022/08/20 01:42:27;;;;;;;3.30;2.88;;;;;;;21.03;59.87;100428.66;10519954;28;20191;-83
2022/08/20 01:47:50;;;;;;;5.53;2.88;;;;;;;20.73;61.56;100426.06;10507203;28;20199;-82
2022/08/20 01:53:27;;;;;;;7.38;5.60;;;;;;;20.97;61.38;100431.06;10521133;28;20206;-81
2022/08/20 01:58:52;;;;;;;10.68;9.60;;;;;;;21.58;59.71;100426.31;10513084;28;20190;-81
2022/08/20 02:04:16;;;;;;;15.13;13.38;;;;;;;21.57;59.39;100418.94;10511363;28;20212;-80
2022/08/20 02:09:39;;;;;;;19.45;14.93;;;;;;;21.74;59.31;100417.28;10536958;28;20218;-81
2022/08/20 02:15:02;;;;;;;16.90;13.57;;;;;;;21.66;59.40;100416.47;10547759;28;20755;-81
2022/08/20 02:20:28;;;;;;;16.20;14.18;;;;;;;21.43;59.80;100413.19;10505488;28;20271;-81
2022/08/20 02:25:50;;;;;;;20.35;14.88;;;;;;;21.62;59.36;100415.63;10525352;28;20199;-80
2022/08/20 02:31:13;;;;;;;18.40;14.65;;;;;;;21.33;60.90;100416.84;10505054;28;20565;-81
2022/08/20 02:36:36;;;;;;;21.05;16.52;;;;;;;22.86;55.16;100415.41;10520921;28;20198;-81
2022/08/20 02:41:58;;;;;;;20.42;17.02;;;;;;;22.90;54.97;100415.34;10516196;28;20187;-82
2022/08/20 02:47:20;;;;;;;23.83;19.17;;;;;;;22.88;55.26;100420.72;10520383;28;20224;-81
2022/08/20 02:52:43;;;;;;;23.55;18.77;;;;;;;22.74;55.98;100427.38;10513912;28;20214;-80
2022/08/20 02:58:05;;;;;;;22.73;18.90;;;;;;;23.18;54.48;100423.84;10510158;28;20267;-80
2022/08/20 03:03:28;;;;;;;22.90;20.00;;;;;;;23.07;54.08;100420.19;10541725;28;20195;-80
2022/08/20 03:08:50;;;;;;;24.75;20.38;;;;;;;22.60;55.95;100418.81;10526722;28;20206;-80
2022/08/20 03:14:12;;;;;;;27.95;21.50;;;;;;;22.71;55.95;100415.88;10541119;28;20260;-80
2022/08/20 03:19:34;;;;;;;23.67;20.20;;;;;;;22.85;54.74;100415.81;10553345;28;20216;-80
2022/08/20 03:24:56;;;;;;;26.88;20.55;;;;;;;22.78;55.19;100405.16;10537690;28;20195;-80
2022/08/20 03:30:19;;;;;;;27.20;20.52;;;;;;;23.09;54.10;100408.28;10494126;28;20210;-80
2022/08/20 03:35:41;;;;;;;25.80;21.25;;;;;;;22.81;55.16;100407.19;10496913;28;20236;-80
2022/08/20 03:41:03;;;;;;;25.40;20.92;;;;;;;22.67;55.28;100413.00;10526968;28;20191;-80
2022/08/20 03:46:25;;;;;;;23.50;20.48;;;;;;;22.42;55.67;100407.34;10533839;28;20190;-80
2022/08/20 03:51:48;;;;;;;29.23;22.00;;;;;;;22.13;57.60;100402.91;10534355;28;20633;-80
2022/08/20 03:57:14;;;;;;;27.90;21.48;;;;;;;22.26;57.04;100409.84;10530435;28;20194;-80
2022/08/20 04:02:36;;;;;;;31.25;24.15;;;;;;;22.08;57.57;100403.34;10512657;28;20732;-80
2022/08/20 04:08:00;;;;;;;28.17;21.80;;;;;;;22.33;56.07;100398.34;10497198;28;20227;-83
2022/08/20 04:13:23;;;;;;;28.13;21.48;;;;;;;22.53;56.11;100402.41;10516060;28;20268;-80
2022/08/20 04:18:47;;;;;;;30.42;22.13;;;;;;;22.86;54.04;100409.66;10546320;28;20225;-80
2022/08/20 04:24:09;;;;;;;29.73;21.65;;;;;;;22.71;54.57;100404.38;10549832;28;20255;-79
2022/08/20 04:29:32;;;;;;;32.35;23.33;;;;;;;22.63;54.65;100409.34;10546470;28;20214;-80
2022/08/20 04:34:54;;;;;;;32.13;23.33;;;;;;;22.46;55.08;100425.38;10520054;28;20606;-79
2022/08/20 04:46:01;;;;;;;35.78;25.85;;;;;;;22.81;54.56;100435.13;10517821;28;20614;-80
2022/08/20 04:51:24;;;;;;;35.17;26.25;;;;;;;22.65;54.37;100449.94;10518142;28;20210;-79
2022/08/20 04:56:47;;;;;;;28.33;22.05;;;;;;;22.74;54.52;100470.47;10552489;28;20260;-80
2022/08/20 05:02:09;;;;;;;31.55;21.98;;;;;;;22.67;55.32;100476.22;10514007;28;20672;-82
2022/08/20 05:07:31;;;;;;;32.03;20.77;;;;;;;22.53;55.75;100476.22;10536962;28;20708;-82
2022/08/20 05:12:53;;;;;;;29.17;21.48;;;;;;;22.64;55.40;100482.00;10530961;28;20222;-81
2022/08/20 05:18:17;;;;;;;29.80;22.77;;;;;;;22.59;56.32;100491.03;10542233;28;20244;-83
2022/08/20 05:23:41;;;;;;;31.73;22.83;;;;;;;22.28;56.15;100475.47;10545691;28;20266;-81
2022/08/20 05:29:05;;;;;;;37.10;22.30;;;;;;;22.93;54.67;100477.75;10511729;28;20569;-81
2022/08/20 05:34:27;;;;;;;29.92;21.65;;;;;;;23.03;54.10;100487.59;10517009;28;20198;-82
2022/08/20 05:39:49;;;;;;;29.77;23.15;;;;;;;22.50;55.23;100477.91;10509361;28;20264;-80
2022/08/20 05:45:11;;;;;;;21.20;15.35;;;;;;;22.94;52.11;100465.03;10530478;28;20191;-88
2022/08/20 05:50:34;;;;;;;29.92;23.70;;;;;;;22.99;53.22;100475.28;10522361;28;20211;-78
2022/08/20 05:55:56;;;;;;;41.88;29.00;;;;;;;22.80;54.95;100485.19;10521515;28;20199;-85
2022/08/20 06:01:18;;;;;;;29.38;21.92;;;;;;;22.43;55.52;100480.78;10516148;28;20187;-79
2022/08/20 06:06:41;;;;;;;29.17;21.73;;;;;;;23.11;54.96;100478.53;10537294;28;20279;-79
2022/08/20 06:12:05;;;;;;;25.08;20.02;;;;;;;23.05;53.69;100470.72;10494768;28;20218;-78
2022/08/20 06:17:32;;;;;;;28.45;20.13;;;;;;;23.00;53.13;100477.75;10529840;28;20194;-80
2022/08/20 06:22:55;;;;;;;28.55;21.92;;;;;;;23.40;52.45;100481.25;10537800;28;20236;-90
2022/08/20 06:28:17;;;;;;;33.65;24.98;;;;;;;22.82;53.00;100488.47;10503368;28;20203;-80
2022/08/20 06:33:39;;;;;;;36.80;26.98;;;;;;;23.05;53.75;100491.66;10521055;28;20812;-81
2022/08/20 06:39:02;;;;;;;32.50;24.58;;;;;;;23.24;53.08;100484.63;10526428;28;20198;-81
2022/08/20 06:44:24;;;;;;;27.75;22.23;;;;;;;23.29;53.24;100481.28;10526030;28;20248;-80
2022/08/20 06:49:47;;;;;;;27.23;21.15;;;;;;;22.96;55.23;100481.84;10497496;28;20210;-81
2022/08/20 06:55:09;;;;;;;30.08;21.58;;;;;;;23.12;54.24;100480.19;10507512;28;20247;-81
2022/08/20 07:00:34;;;;;;;32.22;23.92;;;;;;;23.02;54.54;100492.53;10503966;28;20332;-87
2022/08/20 07:05:56;;;;;;;31.08;20.85;;;;;;;23.19;52.78;100496.56;10521197;28;20491;-80
2022/08/20 07:11:19;;;;;;;31.10;22.92;;;;;;;22.61;56.21;100503.75;10533155;28;20230;-81
2022/08/20 07:16:42;;;;;;;28.85;23.52;;;;;;;22.67;55.39;100504.13;10516929;28;20243;-80
2022/08/20 07:22:04;;;;;;;29.35;23.80;;;;;;;22.91;55.12;100508.97;10532805;28;20195;-81
2022/08/20 07:27:26;;;;;;;28.70;23.42;;;;;;;22.67;56.45;100509.88;10515203;28;20203;-89
2022/08/20 07:32:49;;;;;;;25.80;22.90;;;;;;;22.71;55.79;100510.69;10541349;28;20322;-80
2022/08/20 07:38:18;;;;;;;26.90;22.35;;;;;;;23.19;54.26;100508.88;10547889;28;20195;-80
2022/08/20 07:43:44;;;;;;;27.42;22.95;;;;;;;22.74;54.79;100518.50;10528242;28;20236;-81
2022/08/20 07:49:08;;;;;;;31.20;24.52;;;;;;;23.26;53.30;100519.53;10510891;28;20195;-80
2022/08/20 07:54:31;;;;;;;28.98;24.17;;;;;;;22.93;54.73;100518.00;10525628;28;20204;-80
2022/08/20 07:59:53;;;;;;;27.58;24.10;;;;;;;22.96;55.20;100522.09;10531267;28;20655;-80
2022/08/20 08:05:16;;;;;;;26.05;21.65;;;;;;;22.57;55.41;100522.22;10541081;28;20198;-81
2022/08/20 08:10:40;;;;;;;21.08;17.92;;;;;;;22.30;56.00;100533.31;10499726;28;20311;-81
2022/08/20 08:16:04;;;;;;;22.45;20.05;;;;;;;22.60;56.32;100525.09;10512480;28;20268;-80
2022/08/20 08:21:28;;;;;;;24.50;21.00;;;;;;;22.96;54.15;100537.28;10526936;28;20186;-80
2022/08/20 08:26:51;;;;;;;23.83;18.98;;;;;;;23.11;54.87;100538.91;10505647;28;20259;-80
2022/08/20 08:32:13;;;;;;;22.02;18.95;;;;;;;23.46;52.71;100531.34;10520384;28;20214;-81
2022/08/20 08:37:36;;;;;;;22.13;17.70;;;;;;;22.90;54.15;100536.88;10523864;28;20699;-80
2022/08/20 08:43:02;;;;;;;19.58;17.50;;;;;;;23.54;52.84;100527.19;10526569;28;20194;-80
2022/08/20 08:48:31;;;;;;;20.02;17.08;;;;;;;22.31;54.78;100537.81;10527984;28;20579;-80
2022/08/20 08:53:55;;;;;;;18.60;16.35;;;;;;;23.05;52.67;100536.84;10509553;28;20267;-81
2022/08/20 08:59:20;;;;;;;19.40;17.45;;;;;;;23.35;51.97;100540.03;10525069;28;20206;-80
2022/08/20 09:04:42;;;;;;;18.88;16.98;;;;;;;24.16;49.31;100543.63;10538013;28;20279;-81
2022/08/20 09:10:05;;;;;;;19.65;17.65;;;;;;;23.19;51.51;100543.38;10481836;28;1055903;-80
2022/08/20 09:15:28;;;;;;;16.02;14.32;;;;;;;24.22;48.13;100544.81;10525137;28;20229;-79
2022/08/20 09:20:50;;;;;;;14.10;12.70;;;;;;;24.71;44.84;100545.59;10538690;28;20521;-80
2022/08/20 09:26:12;;;;;;;14.18;12.77;;;;;;;24.31;45.48;100545.16;10506845;28;20206;-92
2022/08/20 09:31:35;;;;;;;11.13;10.15;;;;;;;24.41;43.44;100555.75;10509076;28;20606;-82
2022/08/20 09:36:57;;;;;;;13.63;12.30;;;;;;;24.14;45.58;100549.78;10537889;28;20195;-81
2022/08/20 09:42:25;;;;;;;15.70;14.32;;;;;;;24.47;46.53;100554.03;10529510;28;20191;-79
2022/08/20 09:47:48;;;;;;;14.70;13.40;;;;;;;24.67;44.30;100540.69;10519724;28;20510;-87
2022/08/20 09:53:10;;;;;;;14.38;12.93;;;;;;;24.42;46.01;100545.88;10531086;28;20306;-80
2022/08/20 09:58:37;;;;;;;14.27;12.90;;;;;;;24.43;46.64;100547.50;10499854;28;20277;-93
2022/08/20 10:04:00;;;;;;;18.02;16.13;;;;;;;24.64;45.40;100538.63;10508145;28;20230;-80
2022/08/20 10:09:24;;;;;;;22.85;19.35;;;;;;;24.17;46.97;100556.78;10521302;28;20271;-81
2022/08/20 10:14:46;;;;;;;24.23;21.90;;;;;;;24.38;46.06;100556.59;10501808;28;20206;-79
2022/08/20 10:20:12;;;;;;;29.25;26.35;;;;;;;23.92;46.94;100569.31;10538325;28;20264;-79
2022/08/20 10:25:34;;;;;;;30.50;27.30;;;;;;;24.53;45.73;100557.28;10511650;28;20312;-84
2022/08/20 10:30:56;;;;;;;33.13;28.42;;;;;;;24.27;47.09;100568.22;10477654;28;20269;-85
2022/08/20 10:36:20;;;;;;;35.85;31.85;;;;;;;23.14;47.84;100581.22;10509309;28;20619;-80
2022/08/20 10:41:43;;;;;;;37.72;33.78;;;;;;;23.85;46.65;100574.28;10520091;28;20299;-81
2022/08/20 10:47:22;;;;;;;38.63;32.92;;;;;;;24.08;47.01;100565.06;10513419;28;20234;-81
2022/08/20 10:52:46;;;;;;;32.95;29.52;;;;;;;24.64;44.69;100558.00;10523626;28;20242;-80
2022/08/20 10:58:09;;;;;;;33.13;29.88;;;;;;;23.84;45.12;100573.47;10529906;28;20252;-79
2022/08/20 11:03:31;;;;;;;34.80;31.23;;;;;;;24.21;43.92;100563.34;10542529;28;20216;-85
2022/08/20 11:08:54;;;;;;;34.53;30.85;;;;;;;23.77;45.06;100567.78;10538426;28;20297;-85
2022/08/20 11:14:16;;;;;;;36.88;32.90;;;;;;;23.63;45.46;100567.81;10514457;28;20743;-80
2022/08/20 11:19:43;;;;;;;33.78;30.00;;;;;;;23.78;44.78;100568.59;10530487;28;20194;-80
2022/08/20 11:25:05;;;;;;;32.65;29.33;;;;;;;24.65;43.76;100560.47;10524218;28;20186;-81
2022/08/20 11:30:30;;;;;;;32.20;28.85;;;;;;;25.08;41.91;100574.44;10524182;28;20210;-81
2022/08/20 11:35:53;;;;;;;27.98;25.27;;;;;;;24.50;43.27;100570.50;10528838;28;20194;-81
2022/08/20 11:41:15;;;;;;;27.90;25.25;;;;;;;25.33;41.13;100566.31;10514718;28;20244;-83
2022/08/20 11:46:37;;;;;;;25.30;22.42;;;;;;;24.93;40.78;100572.97;10533296;28;20194;-81
2022/08/20 11:51:59;;;;;;;24.40;21.60;;;;;;;24.79;40.95;100576.00;10519711;28;20268;-82
2022/08/20 11:57:24;;;;;;;24.08;21.50;;;;;;;23.92;42.20;100580.81;10530466;28;20205;-80
2022/08/20 12:02:47;;;;;;;22.25;19.00;;;;;;;23.52;44.77;100590.09;10528154;28;20221;-80
2022/08/20 12:08:10;;;;;;;19.00;17.10;;;;;;;24.04;42.24;100575.81;10529860;28;20226;-81
2022/08/20 12:13:34;;;;;;;18.50;16.70;;;;;;;24.37;40.79;100578.03;10515906;28;20226;-81
2022/08/20 12:18:56;;;;;;;16.00;13.52;;;;;;;24.45;38.91;100579.59;10533691;28;20244;-82
2022/08/20 12:24:19;;;;;;;18.38;14.45;;;;;;;24.70;39.75;100578.53;10527258;28;20269;-81
2022/08/20 12:29:42;;;;;;;16.45;14.05;;;;;;;24.45;39.80;100587.44;10554790;28;20250;-79
2022/08/20 12:35:06;;;;;;;15.73;12.57;;;;;;;25.40;38.30;100571.16;10519327;28;20523;-83
2022/08/20 12:40:28;;;;;;;14.95;12.32;;;;;;;25.68;38.24;100569.94;10533007;28;20182;-82
2022/08/20 12:45:51;;;;;;;13.75;11.02;;;;;;;25.67;38.50;100568.31;10525860;28;20506;-81
2022/08/20 12:51:13;;;;;;;15.52;12.55;;;;;;;26.83;36.00;100563.94;10530728;28;20214;-85
2022/08/20 12:56:35;;;;;;;13.25;11.35;;;;;;;26.07;36.36;100549.16;10546658;28;20244;-85
2022/08/20 13:01:57;;;;;;;13.45;10.88;;;;;;;26.40;36.76;100553.16;10549712;28;20198;-81
2022/08/20 13:07:19;;;;;;;13.77;10.40;;;;;;;26.01;36.88;100562.47;10498179;28;20202;-87
2022/08/20 13:12:41;;;;;;;12.95;10.10;;;;;;;24.93;37.48;100564.31;10547940;28;20313;-81
2022/08/20 13:18:04;;;;;;;15.48;11.88;;;;;;;25.02;37.74;100550.19;10559382;28;20834;-79
2022/08/20 13:23:27;;;;;;;12.95;9.95;;;;;;;26.25;36.06;100552.56;10543123;28;20226;-79
2022/08/20 13:28:49;;;;;;;11.60;9.48;;;;;;;24.56;37.39;100554.38;10520839;28;20230;-80
2022/08/20 13:34:11;;;;;;;11.00;9.90;;;;;;;26.50;33.99;100554.22;10541110;28;20247;-83
2022/08/20 13:39:37;;;;;;;13.13;10.60;;;;;;;25.77;36.29;100544.25;10510184;28;20194;-80
2022/08/20 13:45:00;;;;;;;15.23;10.45;;;;;;;26.44;36.07;100542.34;10523113;28;20221;-83
2022/08/20 13:50:24;;;;;;;11.45;8.50;;;;;;;23.89;38.07;100561.50;10530257;28;20268;-82
2022/08/20 13:55:46;;;;;;;9.05;7.30;;;;;;;24.73;36.65;100557.53;10508250;28;20207;-81
2022/08/20 14:01:10;;;;;;;9.80;7.38;;;;;;;25.32;35.46;100556.03;10473392;28;20280;-81
2022/08/20 14:06:33;;;;;;;11.68;7.68;;;;;;;25.87;34.26;100548.25;10538064;28;20241;-80
2022/08/20 14:11:55;;;;;;;7.97;6.82;;;;;;;25.42;35.13;100557.13;10474012;28;20226;-81
2022/08/20 14:17:18;;;;;;;6.47;5.82;;;;;;;25.95;33.50;100556.34;10503096;28;20665;-81
2022/08/20 14:22:41;;;;;;;9.77;6.65;;;;;;;26.10;33.22;100556.13;10529449;28;20221;-82
2022/08/20 14:28:15;;;;;;;9.23;6.45;;;;;;;26.58;31.93;100547.88;10496357;28;20476;-81
2022/08/20 14:33:38;;;;;;;9.80;5.45;;;;;;;25.90;32.66;100556.84;10503987;28;20254;-81
2022/08/20 14:39:00;;;;;;;7.72;5.28;;;;;;;25.77;32.36;100552.91;10509735;28;20230;-81
2022/08/20 14:44:23;;;;;;;7.30;5.70;;;;;;;26.41;31.26;100546.09;10517868;28;20255;-81
2022/08/20 14:49:47;;;;;;;8.40;5.78;;;;;;;26.57;31.06;100539.63;10529213;28;20295;-82
2022/08/20 14:55:12;;;;;;;10.68;6.85;;;;;;;26.44;32.00;100551.00;10492342;28;20254;-81
2022/08/20 15:00:35;;;;;;;7.55;5.40;;;;;;;26.97;30.22;100541.34;10513029;28;20226;-82
2022/08/20 15:05:57;;;;;;;11.05;6.07;;;;;;;26.36;30.97;100547.44;10538610;28;20230;-84
2022/08/20 15:11:19;;;;;;;10.73;6.50;;;;;;;25.33;32.78;100549.00;10509488;28;20304;-82
2022/08/20 15:16:41;;;;;;;9.18;5.80;;;;;;;26.61;31.71;100547.00;10539321;28;20247;-84
2022/08/20 15:22:04;;;;;;;9.25;4.97;;;;;;;26.07;32.11;100549.16;10517004;28;20198;-83
2022/08/20 15:27:26;;;;;;;8.23;4.05;;;;;;;26.30;32.16;100549.19;10490684;28;20271;-84
2022/08/20 15:32:49;;;;;;;5.20;3.30;;;;;;;26.10;32.06;100550.34;10504119;28;20297;-83
2022/08/20 15:38:11;;;;;;;5.78;3.03;;;;;;;24.40;33.80;100564.84;10506725;28;20229;-84
2022/08/20 15:43:35;;;;;;;5.38;3.05;;;;;;;24.72;34.38;100561.69;10527164;28;20222;-83
2022/08/20 15:48:58;;;;;;;7.18;2.83;;;;;;;24.74;34.31;100562.03;10522674;28;20216;-83
2022/08/20 15:54:23;;;;;;;7.97;2.58;;;;;;;25.69;32.36;100554.25;10506165;28;20230;-83
2022/08/20 16:00:00;;;;;;;4.53;2.55;;;;;;;27.04;31.51;100551.97;10528617;28;20229;-82
2022/08/20 16:05:57;;;;;;;6.07;2.85;;;;;;;26.37;31.44;100560.66;10494675;28;20222;-82
2022/08/20 16:11:25;;;;;;;6.75;2.10;;;;;;;25.75;33.44;100558.31;10500051;28;20307;-82
2022/08/20 16:16:55;;;;;;;3.60;2.38;;;;;;;25.84;31.90;100561.50;10516323;28;20230;-87
2022/08/20 16:22:18;;;;;;;5.50;2.47;;;;;;;25.16;32.41;100560.72;10509852;28;20671;-85
2022/08/20 16:27:59;;;;;;;6.68;2.28;;;;;;;25.94;31.88;100554.72;10494428;28;20295;-85
2022/08/20 16:33:25;;;;;;;6.18;2.60;;;;;;;25.27;33.10;100556.50;10505057;28;20627;-85
2022/08/20 16:38:54;;;;;;;7.28;2.10;;;;;;;25.25;32.44;100555.28;10488112;28;20252;-82
2022/08/20 16:44:32;;;;;;;6.88;1.83;;;;;;;25.95;31.46;100547.69;10489187;28;20223;-80
2022/08/20 16:49:58;;;;;;;6.40;2.50;;;;;;;26.04;32.19;100555.81;10493654;28;20276;-80
2022/08/20 16:55:22;;;;;;;8.18;2.80;;;;;;;24.70;32.52;100555.47;10465783;28;20794;-79
2022/08/20 17:00:44;;;;;;;7.50;2.30;;;;;;;25.71;32.33;100557.53;10481296;28;20276;-80
2022/08/20 17:06:32;;;;;;;9.15;4.03;;;;;;;25.55;32.80;100555.28;10499319;28;20249;-79
2022/08/20 17:12:12;;;;;;;6.57;4.32;;;;;;;23.67;36.86;100565.78;10528780;28;20723;-80
2022/08/20 17:17:35;;;;;;;8.70;4.43;;;;;;;24.07;36.48;100569.22;10507425;28;20287;-81
2022/08/20 17:23:10;;;;;;;9.05;5.55;;;;;;;25.22;34.92;100547.47;10487031;28;20688;-81
2022/08/20 17:28:36;;;;;;;12.95;5.10;;;;;;;25.03;34.39;100548.13;10493514;28;20700;-81
2022/08/20 17:33:58;;;;;;;8.98;5.32;;;;;;;24.51;34.63;100560.59;10479504;28;20245;-81
2022/08/20 17:39:31;;;;;;;14.82;10.35;;;;;;;25.23;33.76;100555.72;10509230;28;20267;-81
2022/08/20 17:45:17;;;;;;;19.27;16.65;;;;;;;25.01;35.18;100558.03;10523344;28;20209;-84
2022/08/20 17:50:42;;;;;;;10.25;5.70;;;;;;;25.17;34.08;100563.19;10513019;28;20199;-81
2022/08/20 17:56:32;;;;;;;9.38;8.13;;;;;;;25.27;35.29;100567.22;10506285;28;20609;-81
2022/08/20 18:01:55;;;;;;;11.10;5.40;;;;;;;24.42;35.94;100579.63;10498278;28;20603;-81
2022/08/20 18:07:23;;;;;;;7.47;4.55;;;;;;;24.37;37.13;100578.03;10492724;28;20637;-82
2022/08/20 18:13:07;;;;;;;18.90;14.43;;;;;;;24.82;36.00;100580.91;10517213;28;20301;-82
2022/08/20 18:18:41;;;;;;;10.18;6.32;;;;;;;24.06;37.70;100596.38;10485741;28;20222;-82
2022/08/20 18:24:07;;;;;;;12.90;5.03;;;;;;;23.95;36.78;100600.13;10492889;28;20226;-82
2022/08/20 18:29:35;;;;;;;10.63;4.70;;;;;;;24.02;36.92;100601.31;10464606;28;20812;-82
2022/08/20 18:35:31;;;;;;;9.88;5.72;;;;;;;24.23;36.52;100604.88;10477106;28;20983;-81
2022/08/20 18:41:05;;;;;;;11.30;8.25;;;;;;;23.95;37.87;100605.88;10501650;28;20234;-80
2022/08/20 18:46:27;;;;;;;15.18;9.07;;;;;;;23.87;38.10;100612.09;10482164;28;20199;-84
2022/08/20 18:51:50;;;;;;;13.18;9.60;;;;;;;23.82;38.85;100616.25;10482107;28;20562;-84
2022/08/20 18:57:22;;;;;;;10.25;6.63;;;;;;;24.31;37.33;100614.31;10511405;28;20206;-81
2022/08/20 19:03:01;;;;;;;11.00;6.15;;;;;;;24.20;37.70;100619.31;10479738;28;20251;-82
2022/08/20 19:08:33;;;;;;;9.45;6.35;;;;;;;24.26;37.87;100617.63;10459751;28;20243;-81
2022/08/20 19:14:13;;;;;;;15.15;7.03;;;;;;;23.94;38.51;100617.81;10483856;28;20258;-81
2022/08/20 19:19:35;;;;;;;7.40;5.18;;;;;;;23.88;38.62;100623.22;10515292;28;20190;-81
2022/08/20 19:24:57;;;;;;;12.13;6.20;;;;;;;23.79;39.13;100619.97;10521735;28;20610;-80
2022/08/20 19:30:35;;;;;;;11.00;5.75;;;;;;;23.74;38.45;100614.66;10544636;28;20733;-80
2022/08/20 19:36:20;;;;;;;13.40;6.55;;;;;;;23.36;39.68;100621.38;10497982;28;20729;-81
2022/08/20 19:42:01;;;;;;;11.73;7.10;;;;;;;23.40;39.70;100625.09;10528481;28;20598;-80
2022/08/20 19:47:33;;;;;;;9.55;5.80;;;;;;;23.08;40.07;100630.91;10493579;28;20222;-79
2022/08/20 19:53:04;;;;;;;12.05;6.05;;;;;;;23.24;39.55;100619.78;10533252;28;20242;-80
2022/08/20 19:58:28;;;;;;;13.55;6.57;;;;;;;23.05;39.86;100629.66;10524126;28;20226;-81
2022/08/20 20:04:05;;;;;;;20.38;11.70;;;;;;;23.17;39.83;100620.63;10517838;28;20225;-83
2022/08/20 20:09:28;;;;;;;16.85;10.50;;;;;;;22.98;39.47;100623.94;10480427;28;20254;-81
2022/08/20 20:14:52;;;;;;;19.33;12.13;;;;;;;22.80;39.55;100617.41;10468603;28;20308;-83
2022/08/20 20:20:28;;;;;;;13.60;7.20;;;;;;;22.94;38.54;100623.13;10450219;28;20291;-81
2022/08/20 20:26:03;;;;;;;9.50;6.50;;;;;;;21.84;39.81;100635.38;10472226;28;20591;-81
2022/08/20 20:31:31;;;;;;;13.88;7.20;;;;;;;22.23;39.02;100628.91;10458555;28;20257;-83
2022/08/20 20:37:08;;;;;;;9.82;6.35;;;;;;;22.42;39.45;100631.34;10467902;28;20311;-80
2022/08/20 20:42:31;;;;;;;11.10;6.53;;;;;;;22.84;37.38;100644.09;10472267;28;20221;-82
2022/08/20 20:47:53;;;;;;;7.68;4.50;;;;;;;22.63;37.38;100638.38;10467180;28;20292;-82
2022/08/20 20:53:31;;;;;;;6.18;3.22;;;;;;;22.31;35.35;100644.06;10471234;28;20254;-79
2022/08/20 20:58:54;;;;;;;6.10;2.60;;;;;;;22.25;34.74;100637.91;10451899;28;20227;-82
2022/08/20 21:04:21;;;;;;;6.10;2.40;;;;;;;22.44;34.37;100639.56;10440540;28;20254;-82
2022/08/20 21:09:43;;;;;;;9.65;2.72;;;;;;;22.10;35.40;100642.00;10459708;28;20230;-82
2022/08/20 21:15:06;;;;;;;9.88;2.95;;;;;;;22.82;33.86;100637.94;10486968;28;20311;-82
2022/08/20 21:20:28;;;;;;;7.63;2.40;;;;;;;21.71;35.99;100648.44;10494116;28;20219;-82
2022/08/20 21:25:50;;;;;;;7.60;3.20;;;;;;;21.79;35.73;100647.22;10478276;28;20226;-82
2022/08/20 21:31:13;;;;;;;7.25;2.85;;;;;;;21.43;37.08;100651.19;10457676;28;20227;-83
2022/08/20 21:36:35;;;;;;;8.93;2.85;;;;;;;22.31;35.30;100647.78;10444922;28;20245;-83
2022/08/20 21:42:01;;;;;;;6.33;3.00;;;;;;;22.07;36.72;100646.50;10456902;28;20223;-82
2022/08/20 21:47:24;;;;;;;9.05;3.05;;;;;;;22.05;36.33;100636.66;10454338;28;20289;-83
2022/08/20 21:52:47;;;;;;;6.32;2.78;;;;;;;21.79;36.28;100638.63;10488993;28;20638;-82
2022/08/20 21:58:09;;;;;;;10.00;3.17;;;;;;;21.72;37.66;100637.78;10484321;28;20195;-82
2022/08/20 22:03:34;;;;;;;5.63;2.65;;;;;;;21.83;38.13;100642.34;10463305;28;20366;-82
2022/08/20 22:08:56;;;;;;;5.07;2.50;;;;;;;21.31;38.65;100645.78;10499440;28;20273;-82
2022/08/20 22:14:19;;;;;;;6.35;3.08;;;;;;;21.14;40.03;100656.75;10476572;28;20758;-80
2022/08/20 22:19:41;;;;;;;11.80;3.85;;;;;;;21.10;40.32;100638.69;10481444;28;20527;-80
2022/08/20 22:25:03;;;;;;;9.27;3.17;;;;;;;20.71;40.32;100649.88;10476002;28;20299;-82
2022/08/20 22:30:26;;;;;;;5.53;2.70;;;;;;;20.76;41.87;100648.69;10485176;28;20226;-80
2022/08/20 22:35:51;;;;;;;6.97;3.17;;;;;;;20.58;41.15;100659.19;10479376;28;20551;-82
2022/08/20 22:41:14;;;;;;;6.72;3.20;;;;;;;21.37;40.82;100650.72;10483354;28;20233;-83
2022/08/20 22:46:38;;;;;;;5.97;3.15;;;;;;;21.66;39.56;100643.09;10467289;28;20298;-79
2022/08/20 22:52:00;;;;;;;6.45;3.42;;;;;;;21.18;40.99;100653.91;10472261;28;20798;-80
2022/08/20 22:57:23;;;;;;;7.75;3.75;;;;;;;21.39;40.22;100656.09;10471300;28;20254;-79
2022/08/20 23:02:49;;;;;;;8.45;3.17;;;;;;;21.53;39.60;100647.56;10475200;28;20249;-82
2022/08/20 23:08:12;;;;;;;5.93;3.15;;;;;;;21.49;40.27;100652.44;10481942;28;20251;-83
2022/08/20 23:13:34;;;;;;;7.10;3.63;;;;;;;21.42;40.15;100643.81;10521555;28;20269;-79
2022/08/20 23:18:56;;;;;;;7.07;3.22;;;;;;;20.74;41.28;100651.13;10514114;28;20238;-80
2022/08/20 23:24:18;;;;;;;5.43;3.27;;;;;;;21.37;40.26;100635.56;10501581;28;20242;-80
2022/08/20 23:29:41;;;;;;;6.00;2.85;;;;;;;21.32;40.60;100644.56;10499125;28;20230;-82
2022/08/20 23:35:04;;;;;;;4.80;3.00;;;;;;;21.19;40.66;100649.00;10483545;28;20274;-83
2022/08/20 23:40:28;;;;;;;8.95;3.63;;;;;;;21.06;40.79;100640.75;10477814;28;20614;-81
2022/08/20 23:45:50;;;;;;;10.88;3.63;;;;;;;19.97;44.08;100657.75;10519260;28;20271;-82
2022/08/20 23:51:13;;;;;;;9.05;3.13;;;;;;;21.13;41.68;100637.09;10506793;28;20238;-81
2022/08/20 23:56:35;;;;;;;8.60;3.20;;;;;;;21.12;41.93;100633.41;10494242;28;20265;-81
